createdAt,value
2023-02-05T00:00:49.029Z,22.10
2023-02-05T00:02:50.364Z,22.18
2023-02-05T00:04:51.756Z,22.20
2023-02-05T00:06:53.043Z,22.25
2023-02-05T00:08:54.337Z,22.25
2023-02-05T00:10:55.659Z,22.29
2023-02-05T00:12:56.949Z,22.27
2023-02-05T00:14:58.299Z,22.26
2023-02-05T00:16:59.591Z,22.26
2023-02-05T00:19:01.007Z,22.22
2023-02-05T00:21:02.404Z,22.24
2023-02-05T00:23:03.752Z,22.20
2023-02-05T00:25:05.035Z,22.12
2023-02-05T00:27:06.333Z,22.06
2023-02-05T00:29:07.637Z,22.06
2023-02-05T00:31:09.051Z,22.01
2023-02-05T00:33:10.428Z,21.97
2023-02-05T00:35:11.770Z,21.95
2023-02-05T00:37:13.081Z,21.90
2023-02-05T00:39:14.758Z,21.85
2023-02-05T00:41:16.058Z,21.80
2023-02-05T00:43:17.396Z,21.75
2023-02-05T00:45:18.687Z,21.71
2023-02-05T00:47:20.025Z,21.65
2023-02-05T00:49:21.336Z,21.63
2023-02-05T00:51:22.618Z,21.60
2023-02-05T00:53:23.949Z,21.58
2023-02-05T00:55:25.279Z,21.55
2023-02-05T00:57:26.629Z,21.54
2023-02-05T00:59:27.970Z,21.51
2023-02-05T01:01:29.339Z,21.49
2023-02-05T01:03:30.731Z,21.47
2023-02-05T01:05:32.283Z,21.46
2023-02-05T01:07:33.796Z,21.45
2023-02-05T01:09:35.127Z,21.42
2023-02-05T01:11:36.451Z,21.41
2023-02-05T01:13:37.744Z,21.40
2023-02-05T01:15:39.140Z,21.39
2023-02-05T01:17:40.534Z,21.36
2023-02-05T01:19:41.827Z,21.36
2023-02-05T01:21:43.173Z,21.36
2023-02-05T01:23:44.484Z,21.35
2023-02-05T01:25:46.209Z,21.35
2023-02-05T01:27:47.563Z,21.36
2023-02-05T01:29:48.912Z,21.41
2023-02-05T01:31:50.271Z,21.43
2023-02-05T01:33:51.579Z,21.46
2023-02-05T01:35:52.907Z,21.49
2023-02-05T01:37:54.203Z,21.52
2023-02-05T01:39:55.491Z,21.63
2023-02-05T01:41:56.883Z,21.72
2023-02-05T01:43:58.179Z,21.79
2023-02-05T01:45:59.516Z,21.83
2023-02-05T01:48:00.965Z,21.85
2023-02-05T01:50:02.262Z,21.89
2023-02-05T01:52:03.552Z,21.90
2023-02-05T01:54:04.856Z,21.90
2023-02-05T01:56:06.179Z,21.93
2023-02-05T01:58:07.485Z,21.95
2023-02-05T02:00:08.787Z,21.76
2023-02-05T02:02:10.137Z,21.70
2023-02-05T02:04:11.474Z,21.70
2023-02-05T02:06:12.775Z,21.70
2023-02-05T02:08:14.158Z,21.68
2023-02-05T02:10:15.524Z,21.64
2023-02-05T02:12:16.822Z,21.61
2023-02-05T02:14:18.155Z,21.59
2023-02-05T02:16:19.528Z,21.55
2023-02-05T02:18:26.793Z,21.61
2023-02-05T02:20:28.105Z,21.63
2023-02-05T02:22:29.440Z,21.63
2023-02-05T02:24:30.733Z,21.63
2023-02-05T02:26:33.563Z,21.61
2023-02-05T02:28:35.063Z,21.57
2023-02-05T02:30:36.415Z,21.53
2023-02-05T02:32:37.707Z,21.52
2023-02-05T02:34:38.994Z,21.51
2023-02-05T02:36:40.343Z,21.50
2023-02-05T02:38:41.860Z,21.49
2023-02-05T02:40:43.214Z,21.48
2023-02-05T02:42:44.539Z,21.49
2023-02-05T02:44:45.862Z,21.48
2023-02-05T02:46:47.225Z,21.46
2023-02-05T02:48:48.544Z,21.48
2023-02-05T02:50:49.879Z,20.53
2023-02-05T02:52:51.214Z,21.50
2023-02-05T02:54:52.555Z,21.52
2023-02-05T02:56:53.890Z,21.57
2023-02-05T02:58:55.222Z,21.61
2023-02-05T03:00:56.556Z,21.63
2023-02-05T03:02:57.862Z,21.66
2023-02-05T03:04:59.160Z,21.70
2023-02-05T03:07:00.501Z,21.72
2023-02-05T03:09:01.811Z,21.77
2023-02-05T03:11:03.199Z,21.85
2023-02-05T03:13:04.522Z,21.86
2023-02-05T03:15:05.833Z,21.86
2023-02-05T03:17:07.216Z,21.87
2023-02-05T03:19:08.502Z,21.86
2023-02-05T03:21:09.791Z,21.83
2023-02-05T03:23:11.098Z,21.80
2023-02-05T03:25:12.403Z,21.77
2023-02-05T03:27:13.740Z,21.73
2023-02-05T03:29:15.064Z,21.71
2023-02-05T03:31:16.425Z,21.71
2023-02-05T03:33:17.856Z,21.71
2023-02-05T03:35:19.183Z,21.70
2023-02-05T03:37:20.525Z,21.68
2023-02-05T03:39:21.830Z,21.64
2023-02-05T03:41:23.135Z,21.60
2023-02-05T03:43:25.667Z,21.55
2023-02-05T03:45:27.202Z,21.51
2023-02-05T03:47:28.607Z,21.52
2023-02-05T03:49:29.914Z,21.51
2023-02-05T03:51:31.258Z,21.51
2023-02-05T03:53:32.653Z,21.50
2023-02-05T03:55:34.222Z,21.48
2023-02-05T03:57:35.707Z,21.47
2023-02-05T03:59:37.089Z,21.46
2023-02-05T04:01:38.383Z,21.45
2023-02-05T04:03:39.678Z,21.44
2023-02-05T04:05:41.013Z,21.44
2023-02-05T04:07:42.349Z,21.44
2023-02-05T04:09:43.652Z,21.45
2023-02-05T04:11:44.980Z,21.46
2023-02-05T04:13:46.263Z,21.47
2023-02-05T04:15:47.556Z,21.49
2023-02-05T04:17:48.884Z,21.54
2023-02-05T04:19:50.214Z,21.58
2023-02-05T04:21:51.506Z,21.65
2023-02-05T04:23:52.838Z,21.70
2023-02-05T04:25:54.331Z,21.77
2023-02-05T04:27:55.669Z,21.81
2023-02-05T04:29:57.090Z,21.86
2023-02-05T04:31:58.401Z,21.87
2023-02-05T04:33:59.835Z,21.89
2023-02-05T04:36:01.175Z,21.86
2023-02-05T04:38:02.471Z,21.90
2023-02-05T04:40:03.803Z,21.86
2023-02-05T04:42:05.147Z,21.85
2023-02-05T04:44:06.858Z,21.83
2023-02-05T04:46:08.200Z,21.76
2023-02-05T04:48:09.793Z,21.73
2023-02-05T04:50:11.136Z,21.68
2023-02-05T04:52:12.428Z,21.67
2023-02-05T04:54:13.725Z,21.64
2023-02-05T04:56:15.055Z,21.69
2023-02-05T04:58:16.343Z,21.70
2023-02-05T05:00:17.645Z,21.69
2023-02-05T05:02:18.960Z,21.65
2023-02-05T05:04:20.294Z,21.63
2023-02-05T05:06:21.608Z,21.63
2023-02-05T05:08:22.946Z,21.60
2023-02-05T05:10:24.281Z,21.59
2023-02-05T05:12:25.576Z,21.58
2023-02-05T05:14:26.873Z,21.55
2023-02-05T05:16:28.163Z,21.53
2023-02-05T05:18:29.501Z,21.51
2023-02-05T05:20:30.838Z,21.54
2023-02-05T05:22:32.136Z,21.53
2023-02-05T05:24:33.442Z,21.54
2023-02-05T05:26:34.780Z,21.57
2023-02-05T05:28:36.734Z,21.55
2023-02-05T05:30:38.150Z,21.59
2023-02-05T05:32:39.458Z,21.58
2023-02-05T05:34:40.865Z,21.59
2023-02-05T05:36:43.730Z,21.62
2023-02-05T05:38:45.270Z,21.64
2023-02-05T05:41:05.444Z,21.65
2023-02-05T05:43:25.366Z,21.70
2023-02-05T05:45:26.666Z,21.73
2023-02-05T05:47:27.983Z,21.78
2023-02-05T05:49:29.282Z,21.83
2023-02-05T05:51:30.672Z,21.86
2023-02-05T05:53:31.967Z,21.88
2023-02-05T05:55:33.587Z,21.89
2023-02-05T05:57:35.087Z,21.87
2023-02-05T05:59:36.404Z,21.87
2023-02-05T06:01:37.695Z,21.83
2023-02-05T06:03:39.025Z,21.78
2023-02-05T06:05:40.311Z,21.75
2023-02-05T06:07:41.599Z,21.73
2023-02-05T06:09:42.923Z,21.70
2023-02-05T06:11:44.252Z,21.68
2023-02-05T06:13:45.576Z,21.68
2023-02-05T06:15:48.919Z,21.68
2023-02-05T06:17:50.237Z,21.67
2023-02-05T06:19:51.579Z,21.63
2023-02-05T06:21:52.877Z,21.63
2023-02-05T06:23:54.181Z,21.65
2023-02-05T06:25:55.486Z,21.62
2023-02-05T06:27:56.905Z,21.61
2023-02-05T06:29:58.232Z,21.61
2023-02-05T06:31:59.636Z,21.61
2023-02-05T06:34:02.240Z,21.59
2023-02-05T06:36:03.583Z,21.55
2023-02-05T06:38:04.911Z,21.53
2023-02-05T06:40:06.251Z,21.53
2023-02-05T06:42:07.612Z,21.54
2023-02-05T06:44:08.923Z,21.54
2023-02-05T06:46:10.270Z,21.55
2023-02-05T06:48:11.572Z,21.53
2023-02-05T06:50:12.975Z,21.54
2023-02-05T06:52:14.285Z,21.54
2023-02-05T06:54:15.577Z,21.52
2023-02-05T06:56:16.927Z,21.45
2023-02-05T06:58:18.229Z,21.40
2023-02-05T07:00:22.232Z,21.33
2023-02-05T07:02:23.634Z,21.28
2023-02-05T07:04:26.771Z,21.23
2023-02-05T07:06:29.039Z,21.22
2023-02-05T07:08:30.383Z,21.24
2023-02-05T07:10:31.840Z,21.26
2023-02-05T07:12:33.135Z,21.31
2023-02-05T07:14:37.750Z,21.37
2023-02-05T07:16:39.087Z,21.44
2023-02-05T07:18:40.402Z,21.53
2023-02-05T07:20:41.740Z,21.60
2023-02-05T07:22:43.077Z,21.64
2023-02-05T07:24:44.376Z,21.69
2023-02-05T07:26:45.682Z,21.71
2023-02-05T07:28:47.013Z,21.74
2023-02-05T07:30:49.808Z,21.76
2023-02-05T07:32:51.163Z,21.82
2023-02-05T07:34:52.496Z,21.84
2023-02-05T07:36:53.786Z,21.85
2023-02-05T07:38:55.071Z,21.79
2023-02-05T07:40:56.401Z,21.75
2023-02-05T07:42:57.673Z,21.73
2023-02-05T07:44:59.035Z,20.73
2023-02-05T07:47:00.367Z,21.67
2023-02-05T07:49:04.589Z,21.65
2023-02-05T07:51:05.918Z,21.62
2023-02-05T07:53:07.254Z,21.60
2023-02-05T07:55:08.615Z,21.63
2023-02-05T07:57:09.926Z,21.62
2023-02-05T07:59:14.401Z,21.61
2023-02-05T08:01:15.788Z,21.65
2023-02-05T08:03:17.159Z,21.74
2023-02-05T08:05:18.501Z,21.85
2023-02-05T08:07:19.796Z,21.69
2023-02-05T08:09:21.195Z,21.50
2023-02-05T08:11:22.532Z,21.61
2023-02-05T08:13:23.869Z,21.52
2023-02-05T08:15:26.474Z,21.37
2023-02-05T08:17:27.852Z,21.30
2023-02-05T08:19:29.259Z,21.25
2023-02-05T08:21:30.561Z,21.22
2023-02-05T08:23:31.874Z,21.20
2023-02-05T08:25:33.395Z,21.18
2023-02-05T08:27:34.865Z,21.17
2023-02-05T08:29:36.178Z,21.16
2023-02-05T08:31:37.518Z,21.19
2023-02-05T08:33:38.843Z,21.21
2023-02-05T08:35:40.123Z,21.29
2023-02-05T08:37:41.506Z,21.38
2023-02-05T08:39:42.804Z,21.49
2023-02-05T08:41:47.170Z,21.60
2023-02-05T08:43:48.466Z,21.67
2023-02-05T08:45:49.821Z,21.73
2023-02-05T08:47:51.293Z,21.77
2023-02-05T08:49:52.641Z,21.85
2023-02-05T08:51:53.946Z,21.93
2023-02-05T08:53:56.555Z,21.95
2023-02-05T08:55:58.030Z,21.91
2023-02-05T08:57:59.451Z,21.83
2023-02-05T09:00:00.892Z,21.77
2023-02-05T09:02:02.253Z,21.75
2023-02-05T09:04:04.130Z,21.74
2023-02-05T09:06:05.461Z,21.76
2023-02-05T09:08:06.750Z,21.76
2023-02-05T09:10:08.097Z,21.76
2023-02-05T09:12:10.802Z,21.73
2023-02-05T09:14:12.216Z,21.71
2023-02-05T09:16:13.517Z,21.70
2023-02-05T09:18:14.889Z,21.68
2023-02-05T09:20:16.180Z,21.65
2023-02-05T09:22:18.430Z,21.49
2023-02-05T09:24:19.735Z,21.48
2023-02-05T09:26:21.028Z,21.46
2023-02-05T09:28:25.163Z,21.47
2023-02-05T09:30:26.503Z,21.45
2023-02-05T09:32:27.848Z,21.44
2023-02-05T09:34:29.155Z,21.45
2023-02-05T09:36:30.446Z,21.45
2023-02-05T09:38:31.746Z,21.47
2023-02-05T09:40:33.091Z,21.47
2023-02-05T09:42:34.412Z,21.46
2023-02-05T09:44:35.767Z,21.47
2023-02-05T09:46:37.127Z,21.46
2023-02-05T09:48:38.461Z,21.46
2023-02-05T09:50:41.395Z,21.47
2023-02-05T09:52:43.811Z,21.45
2023-02-05T09:54:45.135Z,21.42
2023-02-05T09:56:46.452Z,21.40
2023-02-05T09:58:47.931Z,21.40
2023-02-05T10:00:49.319Z,21.44
2023-02-05T10:02:51.172Z,21.46
2023-02-05T10:04:53.269Z,21.49
2023-02-05T10:06:54.747Z,21.52
2023-02-05T10:08:56.119Z,21.58
2023-02-05T10:10:57.432Z,21.67
2023-02-05T10:12:58.727Z,21.76
2023-02-05T10:15:00.100Z,21.85
2023-02-05T10:17:01.403Z,21.90
2023-02-05T10:19:02.795Z,21.92
2023-02-05T10:21:04.086Z,21.92
2023-02-05T10:23:06.945Z,21.89
2023-02-05T10:25:08.279Z,21.89
2023-02-05T10:27:09.578Z,21.87
2023-02-05T10:29:11.098Z,21.79
2023-02-05T10:31:12.583Z,21.74
2023-02-05T10:33:13.960Z,21.66
2023-02-05T10:35:15.258Z,21.58
2023-02-05T10:37:16.609Z,21.49
2023-02-05T10:39:18.012Z,21.40
2023-02-05T10:41:19.409Z,21.33
2023-02-05T10:43:20.883Z,21.27
2023-02-05T10:45:22.307Z,21.21
2023-02-05T10:47:24.418Z,21.17
2023-02-05T10:49:25.743Z,19.08
2023-02-05T10:51:27.080Z,17.92
2023-02-05T10:53:28.403Z,16.68
2023-02-05T10:55:29.706Z,16.01
2023-02-05T10:57:33.835Z,16.27
2023-02-05T10:59:35.132Z,19.09
2023-02-05T11:01:38.038Z,21.02
2023-02-05T11:03:39.995Z,21.64
2023-02-05T11:05:41.386Z,21.62
2023-02-05T11:07:42.694Z,21.37
2023-02-05T11:09:46.158Z,21.34
2023-02-05T11:11:47.523Z,21.39
2023-02-05T11:13:48.830Z,21.46
2023-02-05T11:15:50.140Z,21.55
2023-02-05T11:17:51.678Z,21.64
2023-02-05T11:19:52.992Z,21.71
2023-02-05T11:21:54.419Z,21.78
2023-02-05T11:23:55.734Z,21.85
2023-02-05T11:25:57.060Z,21.92
2023-02-05T11:27:58.739Z,21.96
2023-02-05T11:30:00.213Z,22.00
2023-02-05T11:32:03.729Z,22.03
2023-02-05T11:34:05.116Z,22.07
2023-02-05T11:36:06.448Z,22.12
2023-02-05T11:38:07.748Z,22.15
2023-02-05T11:40:09.084Z,22.17
2023-02-05T11:42:10.427Z,22.20
2023-02-05T11:44:11.720Z,22.22
2023-02-05T11:46:15.699Z,22.19
2023-02-05T11:48:17.010Z,22.17
2023-02-05T11:50:18.846Z,22.07
2023-02-05T11:52:23.179Z,22.02
2023-02-05T11:54:24.540Z,22.03
2023-02-05T11:56:25.896Z,22.03
2023-02-05T11:58:36.503Z,21.99
2023-02-05T12:00:38.487Z,21.96
2023-02-05T12:02:39.833Z,21.92
2023-02-05T12:04:41.192Z,21.91
2023-02-05T12:06:42.516Z,21.88
2023-02-05T12:08:43.807Z,21.84
2023-02-05T12:10:45.237Z,21.80
2023-02-05T12:12:53.205Z,21.80
2023-02-05T12:14:54.513Z,21.78
2023-02-05T12:16:55.946Z,21.75
2023-02-05T12:18:57.267Z,21.71
2023-02-05T12:21:00.070Z,21.68
2023-02-05T12:23:02.271Z,21.64
2023-02-05T12:25:03.748Z,21.60
2023-02-05T12:27:05.053Z,21.46
2023-02-05T12:29:06.410Z,21.68
2023-02-05T12:31:08.079Z,22.27
2023-02-05T12:33:12.292Z,22.91
2023-02-05T12:35:13.645Z,23.36
2023-02-05T12:37:14.937Z,23.42
2023-02-05T12:39:16.277Z,23.30
2023-02-05T12:41:17.749Z,23.57
2023-02-05T12:43:19.051Z,23.47
2023-02-05T12:45:20.400Z,23.21
2023-02-05T12:47:21.705Z,23.09
2023-02-05T12:49:23.042Z,23.09
2023-02-05T12:51:27.291Z,23.23
2023-02-05T12:53:28.608Z,22.01
2023-02-05T12:55:29.899Z,23.26
2023-02-05T12:57:31.232Z,23.21
2023-02-05T12:59:32.655Z,23.18
2023-02-05T13:01:33.947Z,23.23
2023-02-05T13:03:37.626Z,23.32
2023-02-05T13:05:38.963Z,23.40
2023-02-05T13:07:46.181Z,23.16
2023-02-05T13:09:47.532Z,23.21
2023-02-05T13:11:48.841Z,22.97
2023-02-05T13:13:50.544Z,22.91
2023-02-05T13:15:51.867Z,22.50
2023-02-05T13:17:53.172Z,22.28
2023-02-05T13:19:57.398Z,22.18
2023-02-05T13:22:17.653Z,22.13
2023-02-05T13:24:40.547Z,22.08
2023-02-05T13:27:00.402Z,22.06
2023-02-05T13:29:01.699Z,22.03
2023-02-05T13:31:03.103Z,22.05
2023-02-05T13:33:04.523Z,22.06
2023-02-05T13:35:05.858Z,22.04
2023-02-05T13:37:08.941Z,22.03
2023-02-05T13:39:10.782Z,22.03
2023-02-05T13:41:12.116Z,21.99
2023-02-05T13:43:13.405Z,21.98
2023-02-05T13:45:14.691Z,21.99
2023-02-05T13:47:18.241Z,21.97
2023-02-05T13:49:19.570Z,21.97
2023-02-05T13:51:20.895Z,21.97
2023-02-05T13:53:23.036Z,21.96
2023-02-05T13:55:24.433Z,21.94
2023-02-05T13:57:25.759Z,21.95
2023-02-05T13:59:27.075Z,21.94
2023-02-05T14:01:29.710Z,21.87
2023-02-05T14:03:33.752Z,21.87
2023-02-05T14:05:35.379Z,21.89
2023-02-05T14:07:36.852Z,21.91
2023-02-05T14:09:38.187Z,21.85
2023-02-05T14:11:39.484Z,21.82
2023-02-05T14:13:41.509Z,21.75
2023-02-05T14:15:42.905Z,21.69
2023-02-05T14:17:44.276Z,21.64
2023-02-05T14:19:45.642Z,21.59
2023-02-05T14:21:47.044Z,21.55
2023-02-05T14:23:49.067Z,21.60
2023-02-05T14:25:50.482Z,21.63
2023-02-05T14:27:52.215Z,21.66
2023-02-05T14:29:53.613Z,21.68
2023-02-05T14:31:54.959Z,21.72
2023-02-05T14:33:56.288Z,21.77
2023-02-05T14:35:58.748Z,21.82
2023-02-05T14:38:00.053Z,21.86
2023-02-05T14:40:01.362Z,21.89
2023-02-05T14:42:02.860Z,21.94
2023-02-05T14:44:04.231Z,21.96
2023-02-05T14:46:05.658Z,21.98
2023-02-05T14:48:07.025Z,22.01
2023-02-05T14:50:08.408Z,22.00
2023-02-05T14:52:09.759Z,22.03
2023-02-05T14:54:11.087Z,22.06
2023-02-05T14:56:12.951Z,22.06
2023-02-05T14:58:14.250Z,22.07
2023-02-05T15:00:15.558Z,21.13
2023-02-05T15:02:16.874Z,22.02
2023-02-05T15:04:18.179Z,21.99
2023-02-05T15:06:28.379Z,21.97
2023-02-05T15:08:29.717Z,21.96
2023-02-05T15:10:33.816Z,21.92
2023-02-05T15:12:35.130Z,21.94
2023-02-05T15:14:36.447Z,21.95
2023-02-05T15:16:38.351Z,21.91
2023-02-05T15:18:39.823Z,21.88
2023-02-05T15:20:41.878Z,21.85
2023-02-05T15:22:43.191Z,21.81
2023-02-05T15:24:44.527Z,21.79
2023-02-05T15:26:45.826Z,21.81
2023-02-05T15:28:47.117Z,21.80
2023-02-05T15:30:48.584Z,21.77
2023-02-05T15:32:49.944Z,21.76
2023-02-05T15:34:51.234Z,21.74
2023-02-05T15:36:52.607Z,21.77
2023-02-05T15:38:54.057Z,22.01
2023-02-05T15:40:58.377Z,21.95
2023-02-05T15:42:59.655Z,21.71
2023-02-05T15:45:00.973Z,21.59
2023-02-05T15:47:02.275Z,21.67
2023-02-05T15:49:06.687Z,21.55
2023-02-05T15:51:10.734Z,21.60
2023-02-05T15:53:12.016Z,22.14
2023-02-05T15:55:14.988Z,22.23
2023-02-05T15:57:16.292Z,22.31
2023-02-05T15:59:17.599Z,22.49
2023-02-05T16:01:18.966Z,22.60
2023-02-05T16:03:20.264Z,22.57
2023-02-05T16:05:23.129Z,22.90
2023-02-05T16:07:24.565Z,22.87
2023-02-05T16:09:26.646Z,23.20
2023-02-05T16:11:27.945Z,23.01
2023-02-05T16:13:32.972Z,22.94
2023-02-05T16:15:34.247Z,22.91
2023-02-05T16:17:35.816Z,22.78
2023-02-05T16:19:37.111Z,22.82
2023-02-05T16:21:38.411Z,22.58
2023-02-05T16:23:39.785Z,22.35
2023-02-05T16:25:41.100Z,22.25
2023-02-05T16:29:48.247Z,22.64
2023-02-05T16:31:49.907Z,22.73
2023-02-05T16:33:51.297Z,22.83
2023-02-05T16:35:52.640Z,22.37
2023-02-05T16:37:53.978Z,22.06
2023-02-05T16:39:55.448Z,22.29
2023-02-05T16:41:56.756Z,22.37
2023-02-05T16:44:00.750Z,22.47
2023-02-05T16:46:02.240Z,22.94
2023-02-05T16:48:03.595Z,22.79
2023-02-05T16:50:04.887Z,22.65
2023-02-05T16:52:06.223Z,22.60
2023-02-05T16:54:07.514Z,22.65
2023-02-05T16:56:11.865Z,22.66
2023-02-05T16:58:13.206Z,22.71
2023-02-05T17:00:14.496Z,22.75
2023-02-05T17:02:15.996Z,21.83
2023-02-05T17:04:17.336Z,22.73
2023-02-05T17:06:18.630Z,22.69
2023-02-05T17:08:19.962Z,22.63
2023-02-05T17:10:21.316Z,22.62
2023-02-05T17:12:22.644Z,23.05
2023-02-05T17:14:24.015Z,22.41
2023-02-05T17:16:25.769Z,21.93
2023-02-05T17:18:27.197Z,21.52
2023-02-05T17:20:28.545Z,21.83
2023-02-05T17:22:29.875Z,22.21
2023-02-05T17:24:31.172Z,22.31
2023-02-05T17:26:35.404Z,22.27
2023-02-05T17:28:47.242Z,22.64
2023-02-05T17:30:48.565Z,22.63
2023-02-05T17:32:50.708Z,22.54
2023-02-05T17:34:52.053Z,22.50
2023-02-05T17:36:53.343Z,22.47
2023-02-05T17:38:54.686Z,22.22
2023-02-05T17:41:15.994Z,22.09
2023-02-05T17:43:17.327Z,22.03
2023-02-05T17:45:18.610Z,22.05
2023-02-05T17:47:20.132Z,22.49
2023-02-05T17:49:21.432Z,22.94
2023-02-05T17:51:22.757Z,23.09
2023-02-05T17:53:24.084Z,23.25
2023-02-05T17:55:25.434Z,23.26
2023-02-05T17:57:26.860Z,23.25
2023-02-05T17:59:28.244Z,23.20
2023-02-05T18:01:29.596Z,23.28
2023-02-05T18:03:34.915Z,23.18
2023-02-05T18:05:36.216Z,23.03
2023-02-05T18:07:37.567Z,22.96
2023-02-05T18:09:39.001Z,22.99
2023-02-05T18:11:40.331Z,23.00
2023-02-05T18:13:41.677Z,22.99
2023-02-05T18:15:42.972Z,22.98
2023-02-05T18:17:44.326Z,22.97
2023-02-05T18:19:45.649Z,23.00
2023-02-05T18:21:49.790Z,22.75
2023-02-05T18:23:52.529Z,22.33
2023-02-05T18:25:53.908Z,22.55
2023-02-05T18:27:56.309Z,22.77
2023-02-05T18:29:57.637Z,22.78
2023-02-05T18:31:58.975Z,22.80
2023-02-05T18:34:00.271Z,22.82
2023-02-05T18:36:02.232Z,22.86
2023-02-05T18:38:03.508Z,22.83
2023-02-05T18:40:10.541Z,22.87
2023-02-05T18:42:12.872Z,22.92
2023-02-05T18:44:16.030Z,22.91
2023-02-05T18:46:17.452Z,22.94
2023-02-05T18:48:18.811Z,22.95
2023-02-05T18:50:20.153Z,22.92
2023-02-05T18:52:35.173Z,22.95
2023-02-05T18:54:36.500Z,22.93
2023-02-05T18:56:38.176Z,22.86
2023-02-05T18:58:39.477Z,22.88
2023-02-05T19:00:40.906Z,22.91
2023-02-05T19:02:44.963Z,22.91
2023-02-05T19:04:50.663Z,22.94
2023-02-05T19:06:54.925Z,22.99
2023-02-05T19:08:56.238Z,22.90
2023-02-05T19:10:57.801Z,22.90
2023-02-05T19:13:01.867Z,22.89
2023-02-05T19:15:03.219Z,22.90
2023-02-05T19:17:04.503Z,22.63
2023-02-05T19:19:05.844Z,22.27
2023-02-05T19:21:07.828Z,22.16
2023-02-05T19:23:09.459Z,22.32
2023-02-05T19:25:10.788Z,22.56
2023-02-05T19:27:12.130Z,22.72
2023-02-05T19:29:16.489Z,22.80
2023-02-05T19:31:18.036Z,22.83
2023-02-05T19:33:19.413Z,22.87
2023-02-05T19:35:20.784Z,22.88
2023-02-05T19:37:22.624Z,22.89
2023-02-05T19:39:23.923Z,22.94
2023-02-05T19:41:25.251Z,22.94
2023-02-05T19:43:26.659Z,22.93
2023-02-05T19:45:31.051Z,22.99
2023-02-05T19:47:32.358Z,22.99
2023-02-05T19:49:33.713Z,22.98
2023-02-05T19:51:35.114Z,22.95
2023-02-05T19:53:36.416Z,22.97
2023-02-05T19:55:37.764Z,22.90
2023-02-05T19:57:40.433Z,22.45
2023-02-05T19:59:41.743Z,22.50
2023-02-05T20:01:46.067Z,22.66
2023-02-05T20:03:50.183Z,22.81
2023-02-05T20:05:51.488Z,22.80
2023-02-05T20:07:55.598Z,22.69
2023-02-05T20:09:57.255Z,22.33
2023-02-05T20:11:58.559Z,22.14
2023-02-05T20:13:59.899Z,22.02
2023-02-05T20:16:01.235Z,21.98
2023-02-05T20:18:08.536Z,21.95
2023-02-05T20:20:15.903Z,21.92
2023-02-05T20:22:24.355Z,21.87
2023-02-05T20:24:25.660Z,21.79
2023-02-05T20:26:29.932Z,21.73
2023-02-05T20:28:31.267Z,21.68
2023-02-05T20:30:51.339Z,21.60
2023-02-05T20:32:52.791Z,21.49
2023-02-05T20:35:00.093Z,21.41
2023-02-05T20:37:02.140Z,21.38
2023-02-05T20:39:03.488Z,21.16
2023-02-05T20:41:04.823Z,21.55
2023-02-05T20:43:09.186Z,21.96
2023-02-05T20:45:10.496Z,22.17
2023-02-05T20:47:11.871Z,22.34
2023-02-05T20:49:15.948Z,22.47
2023-02-05T20:51:17.380Z,22.60
2023-02-05T20:53:18.759Z,22.75
2023-02-05T20:55:20.065Z,22.85
2023-02-05T20:57:21.480Z,22.90
2023-02-05T20:59:22.803Z,22.96
2023-02-05T21:01:24.115Z,22.99
2023-02-05T21:03:25.411Z,23.02
2023-02-05T21:05:26.698Z,23.05
2023-02-05T21:07:29.758Z,23.26
2023-02-05T21:09:31.099Z,17.46
2023-02-05T21:11:35.063Z,15.32
2023-02-05T21:13:39.376Z,15.80
2023-02-05T21:15:40.700Z,18.57
2023-02-05T21:17:42.857Z,20.01
2023-02-05T21:19:44.204Z,20.61
2023-02-05T21:21:45.493Z,20.97
2023-02-05T21:23:46.876Z,21.21
2023-02-05T21:25:48.202Z,21.41
2023-02-05T21:27:50.854Z,21.60
2023-02-05T21:29:52.395Z,21.79
2023-02-05T21:31:55.537Z,21.90
2023-02-05T21:33:57.403Z,22.00
2023-02-05T21:36:07.790Z,22.06
2023-02-05T21:38:09.135Z,22.12
2023-02-05T21:40:10.431Z,22.18
2023-02-05T21:42:11.759Z,22.20
2023-02-05T21:44:13.078Z,22.26
2023-02-05T21:46:14.421Z,22.26
2023-02-05T21:48:15.730Z,22.26
2023-02-05T21:50:17.036Z,22.23
2023-02-05T21:52:18.347Z,22.22
2023-02-05T21:54:25.197Z,22.14
2023-02-05T21:56:27.130Z,22.07
2023-02-05T21:58:28.459Z,22.02
2023-02-05T22:00:29.794Z,21.99
2023-02-05T22:02:31.132Z,21.97
2023-02-05T22:04:32.424Z,21.95
2023-02-05T22:06:33.728Z,21.89
2023-02-05T22:08:35.077Z,21.84
2023-02-05T22:10:36.628Z,21.76
2023-02-05T22:12:38.095Z,21.70
2023-02-05T22:14:39.434Z,21.66
2023-02-05T22:16:41.152Z,21.62
2023-02-05T22:18:42.494Z,21.60
2023-02-05T22:20:44.251Z,21.55
2023-02-05T22:22:45.633Z,21.52
2023-02-05T22:24:47.015Z,21.51
2023-02-05T22:26:48.443Z,21.48
2023-02-05T22:28:49.786Z,21.47
2023-02-05T22:30:51.185Z,21.45
2023-02-05T22:32:52.503Z,21.45
2023-02-05T22:34:54.454Z,21.42
2023-02-05T22:36:56.192Z,21.42
2023-02-05T22:38:57.516Z,21.40
2023-02-05T22:40:58.810Z,21.38
2023-02-05T22:43:00.144Z,21.36
2023-02-05T22:45:02.256Z,21.35
2023-02-05T22:47:03.644Z,21.35
2023-02-05T22:49:05.019Z,21.35
2023-02-05T22:51:06.344Z,21.35
2023-02-05T22:53:07.672Z,21.35
2023-02-05T22:55:09.053Z,21.37
2023-02-05T22:57:10.394Z,21.38
2023-02-05T22:59:11.702Z,21.41
2023-02-05T23:01:13.047Z,21.45
2023-02-05T23:03:14.407Z,21.59
2023-02-05T23:05:15.723Z,21.69
2023-02-05T23:07:17.026Z,21.76
2023-02-05T23:09:18.371Z,21.84
2023-02-05T23:11:19.713Z,21.87
2023-02-05T23:13:21.023Z,21.91
2023-02-05T23:15:22.326Z,21.93
2023-02-05T23:17:23.614Z,21.94
2023-02-05T23:19:24.915Z,21.96
2023-02-05T23:21:26.244Z,21.96
2023-02-05T23:23:27.651Z,21.97
2023-02-05T23:25:28.943Z,21.97
2023-02-05T23:27:30.259Z,21.97
2023-02-05T23:29:31.587Z,21.92
2023-02-05T23:31:33.473Z,21.84
2023-02-05T23:33:34.849Z,21.81
2023-02-05T23:35:36.432Z,21.80
2023-02-05T23:37:37.946Z,21.73
2023-02-05T23:39:39.238Z,21.65
2023-02-05T23:41:40.596Z,21.62
2023-02-05T23:43:41.898Z,21.60
2023-02-05T23:45:43.328Z,21.57
2023-02-05T23:47:44.879Z,21.54
2023-02-05T23:49:46.219Z,21.54
2023-02-05T23:51:47.516Z,21.52
2023-02-05T23:53:48.816Z,21.50
2023-02-05T23:55:50.164Z,21.48
2023-02-05T23:57:52.269Z,21.49
2023-02-05T23:59:53.562Z,21.45
